メインページ
METAR-TAF:

METAR-TAF

空港 :

コナ国際空港

カイルア・コナ, ハワイ州, アメリカ合衆国

緯度: 19-44-27N, 経度: 156-03-02W, 海抜: 13m

現時点の気象観測

当レポートは50分前の04:53(UTC)に作成
南西の風 5kt
気温 24°C
湿度 65%
気圧 1016 hPa
視程: 16.1km
高度5000ftの雲は散在している

METAR: PHKO 210453Z 23005KT 10SM SCT050 24/17 A3001 RMK AO2 SLP162 T02390167

時間: 19:43 (05:43 UTC)

予報

当レポートは23分前の05:20(UTC)に作成
予報は21日の 06時(UTC)から 22日の 06時(UTC)まで有効
変向風 5kt
視程: 10km
高度2500ftの雲はほとんどない
高度5000ftの千切れ雲あり
近辺でにわか雨
21日の 0900時(UTC)から
東/南東の風 5kt
視程: 10km
高度2500ftの雲はほとんどない
高度5000ftの雲は散在している
21日の 2000時(UTC)から
南西の風 8kt
視程: 10km
高度6000ftの雲は散在している
22日の 0200時(UTC)から
南/南西の風 8kt
視程: 10km
高度6000ftの千切れ雲あり

TAF: PHKO 210520Z 2106/2206 VRB05KT P6SM VCSH FEW025 BKN050 FM210900 11005KT P6SM FEW025 SCT050 FM212000 23008KT P6SM SCT060 FM220200 21008KT P6SM BKN060

4,000以上の空港の気象観測と天気予報(METAR報とTAF報)

利用可能な観測所は地図上に黄色い丸と赤い丸で示す。

丸の上にカーソルを重ねると観測所名を参照できる。

次にクリックすると気象観測と天気予報を参照できる。

マップの切り替え:黒色「×」印の緑ボタンをクリックして拡大、「-」印の緑ボタンをクリックして縮小、緑色の三角印をクリックして隣りの地図に切り替え


METAR-TAF: